Main page
METAR-TAF:

METAR-TAF

Airports :

Šiauliai International Airport

Šiauliai, Lithuania

latitude: 55-53-38N, longitude: 023-23-42E, elevation: 135 m

Current weather observation

The report was made 36 minutes ago, at 10:20 UTC
Wind 7 kt from the South
Temperature -2°C
Humidity 93%
Pressure 1014 hPa
Visibility: 7000 m
Overcast at a height of 500 ft
light snow

METAR: EYSA 061020Z 17007KT 7000 -SN OVC005 M02/M03 Q1014 TEMPO -FZDZ

Time: 12:56 (10:56 UTC)

Forecast

The report was made 2 hours and 56 minutes ago, at 08:00 UTC
Forecast valid from 06 at 09 UTC to 06 at 18 UTC
Wind 11 kt from the South/Southeast
Visibility: 5000 m
Overcast at a height of 200 ft
snow, mist
Temporary
from 06 at 09 UTC to 06 at 12 UTC
Visibility: 3000 m
(light) freezing, drizzle
Becoming
from 06 at 12 UTC to 06 at 14 UTC
Visibility: 3000 m
Temporary
from 06 at 14 UTC to 06 at 18 UTC
Visibility: 1500 m

TAF: EYSA 060800Z 0609/0618 16011KT 5000 SN BR OVC002 TEMPO 0609/0612 3000 -FZDZ BECMG 0612/0614 3000 TEMPO 0614/0618 1500

Weather observations and forecasts of more than 4000 airports (METAR and TAF reports).

The available stations are represented by yellow and red dots on the map.

Hover mouse over dot to see the name of the station.

Then click to see weather observations and forecasts.

To change the map : click on the green buttons with a black cross to zoom in, on the green button with a dash to zoom out, or on the green arrows for adjacent maps.


METAR-TAF: